createdAt,value
2022-12-29T00:01:02.008Z,4.98
2022-12-29T00:03:28.786Z,4.97
2022-12-29T00:05:57.071Z,4.95
2022-12-29T00:08:23.829Z,5.08
2022-12-29T00:10:50.470Z,4.94
2022-12-29T00:13:17.082Z,4.84
2022-12-29T00:15:43.912Z,4.76
2022-12-29T00:18:10.543Z,4.73
2022-12-29T00:20:38.173Z,4.61
2022-12-29T00:23:04.827Z,4.65
2022-12-29T00:25:31.559Z,4.52
2022-12-29T00:28:06.345Z,4.62
2022-12-29T00:30:33.986Z,4.66
2022-12-29T00:33:00.941Z,4.73
2022-12-29T00:35:34.390Z,4.74
2022-12-29T00:38:05.808Z,4.78
2022-12-29T00:40:32.479Z,4.72
2022-12-29T00:42:59.328Z,4.67
2022-12-29T00:45:26.545Z,5.09
2022-12-29T00:47:53.125Z,5.19
2022-12-29T00:50:19.822Z,5.13
2022-12-29T00:52:46.395Z,4.91
2022-12-29T00:55:13.124Z,5.01
2022-12-29T00:57:41.719Z,4.87
2022-12-29T01:00:09.115Z,5.02
2022-12-29T01:02:37.454Z,5.21
2022-12-29T01:05:04.695Z,5.02
2022-12-29T01:07:31.398Z,4.85
2022-12-29T01:09:58.079Z,5.06
2022-12-29T01:12:24.764Z,5.19
2022-12-29T01:14:51.726Z,5.23
2022-12-29T01:17:20.141Z,5.30
2022-12-29T01:19:46.917Z,5.30
2022-12-29T01:22:13.483Z,5.43
2022-12-29T01:24:40.701Z,5.38
2022-12-29T01:27:07.451Z,5.28
2022-12-29T01:29:35.464Z,5.41
2022-12-29T01:32:02.295Z,5.40
2022-12-29T01:34:29.258Z,5.44
2022-12-29T01:36:55.883Z,5.44
2022-12-29T01:39:22.745Z,5.45
2022-12-29T01:41:49.504Z,5.28
2022-12-29T01:44:53.776Z,5.33
2022-12-29T01:47:38.447Z,5.24
2022-12-29T01:50:13.724Z,5.16
2022-12-29T01:52:48.224Z,4.93
2022-12-29T01:55:15.680Z,5.06
2022-12-29T01:57:50.249Z,4.80
2022-12-29T02:00:17.897Z,5.01
2022-12-29T02:02:51.895Z,4.91
2022-12-29T02:05:29.782Z,5.11
2022-12-29T02:07:56.718Z,5.06
2022-12-29T02:10:25.922Z,5.04
2022-12-29T02:12:52.909Z,5.14
2022-12-29T02:15:28.194Z,5.08
2022-12-29T02:18:23.126Z,5.22
2022-12-29T02:21:20.916Z,5.36
2022-12-29T02:24:15.305Z,5.31
2022-12-29T02:26:57.397Z,5.44
2022-12-29T02:29:34.052Z,5.39
2022-12-29T02:32:13.412Z,5.40
2022-12-29T02:34:56.016Z,5.32
2022-12-29T02:37:30.713Z,5.54
2022-12-29T02:40:18.913Z,5.52
2022-12-29T02:42:48.377Z,5.42
2022-12-29T02:45:39.933Z,5.48
2022-12-29T02:48:13.766Z,5.67
2022-12-29T02:51:08.355Z,5.60
2022-12-29T02:53:36.935Z,5.62
2022-12-29T02:56:03.557Z,5.37
2022-12-29T02:58:31.096Z,5.28
2022-12-29T03:01:22.957Z,5.33
2022-12-29T03:04:11.190Z,5.30
2022-12-29T03:07:02.532Z,5.44
2022-12-29T03:09:38.220Z,5.40
2022-12-29T03:12:04.957Z,5.47
2022-12-29T03:14:57.281Z,5.41
2022-12-29T03:18:00.922Z,5.23
2022-12-29T03:20:46.610Z,4.94
2022-12-29T03:23:14.968Z,5.01
2022-12-29T03:25:47.107Z,4.95
2022-12-29T03:28:37.870Z,5.00
2022-12-29T03:31:07.713Z,5.14
2022-12-29T03:33:36.469Z,5.04
2022-12-29T03:36:06.832Z,5.17
2022-12-29T03:38:53.104Z,5.21
2022-12-29T03:41:26.994Z,5.01
2022-12-29T03:43:53.793Z,5.14
2022-12-29T03:46:20.509Z,5.07
2022-12-29T03:48:47.308Z,5.06
2022-12-29T03:51:13.964Z,5.21
2022-12-29T03:53:41.796Z,5.15
2022-12-29T03:56:08.574Z,5.15
2022-12-29T03:58:35.594Z,5.02
2022-12-29T04:01:18.803Z,5.09
2022-12-29T04:03:45.757Z,5.35
2022-12-29T04:06:12.717Z,5.32
2022-12-29T04:08:53.990Z,5.38
2022-12-29T04:11:21.758Z,5.60
2022-12-29T04:13:49.803Z,5.70
2022-12-29T04:16:20.174Z,5.45
2022-12-29T04:18:47.364Z,5.45
2022-12-29T04:21:14.255Z,5.56
2022-12-29T04:23:42.939Z,5.58
2022-12-29T04:26:10.564Z,5.51
2022-12-29T04:29:00.267Z,5.54
2022-12-29T04:31:52.760Z,5.67
2022-12-29T04:34:19.756Z,5.62
2022-12-29T04:36:47.950Z,5.65
2022-12-29T04:39:14.608Z,5.85
2022-12-29T04:41:42.243Z,5.76
2022-12-29T04:44:13.357Z,5.80
2022-12-29T04:46:40.926Z,5.84
2022-12-29T04:49:11.152Z,5.86
2022-12-29T04:51:56.246Z,5.91
2022-12-29T04:54:23.882Z,5.89
2022-12-29T04:56:58.051Z,5.62
2022-12-29T04:59:24.889Z,5.59
2022-12-29T05:01:55.079Z,5.74
2022-12-29T05:04:22.488Z,5.88
2022-12-29T05:06:49.329Z,5.45
2022-12-29T05:09:17.342Z,5.62
2022-12-29T05:11:45.409Z,5.72
2022-12-29T05:14:12.333Z,5.78
2022-12-29T05:16:39.033Z,5.74
2022-12-29T05:19:06.010Z,5.76
2022-12-29T05:21:33.464Z,5.85
2022-12-29T05:24:00.452Z,5.99
2022-12-29T05:26:28.111Z,5.95
2022-12-29T05:29:05.149Z,5.87
2022-12-29T05:31:32.963Z,5.82
2022-12-29T05:34:01.075Z,5.60
2022-12-29T05:36:32.851Z,5.94
2022-12-29T05:39:03.776Z,6.06
2022-12-29T05:41:30.953Z,6.09
2022-12-29T05:44:01.124Z,6.10
2022-12-29T05:46:38.238Z,5.99
2022-12-29T05:49:16.911Z,6.15
2022-12-29T05:51:59.318Z,6.06
2022-12-29T05:54:26.051Z,6.08
2022-12-29T05:56:52.662Z,6.09
2022-12-29T05:59:20.832Z,6.20
2022-12-29T06:01:48.188Z,6.29
2022-12-29T06:04:15.005Z,6.31
2022-12-29T06:06:41.810Z,6.27
2022-12-29T06:09:14.879Z,6.39
2022-12-29T06:11:42.895Z,6.32
2022-12-29T06:14:09.761Z,6.36
2022-12-29T06:16:36.591Z,6.26
2022-12-29T06:19:10.105Z,6.38
2022-12-29T06:21:37.149Z,6.36
2022-12-29T06:24:05.062Z,6.45
2022-12-29T06:26:31.827Z,6.52
2022-12-29T06:28:58.500Z,6.51
2022-12-29T06:31:25.367Z,6.48
2022-12-29T06:33:52.096Z,6.44
2022-12-29T06:36:18.801Z,6.51
2022-12-29T06:38:45.547Z,6.66
2022-12-29T06:41:12.772Z,6.61
2022-12-29T06:44:17.680Z,6.65
2022-12-29T06:46:53.852Z,6.77
2022-12-29T06:49:20.511Z,6.86
2022-12-29T06:51:47.271Z,6.54
2022-12-29T06:54:14.068Z,6.58
2022-12-29T06:56:40.754Z,6.64
2022-12-29T06:59:07.499Z,6.88
2022-12-29T07:01:34.277Z,7.01
2022-12-29T07:04:01.085Z,7.00
2022-12-29T07:06:27.712Z,6.86
2022-12-29T07:08:54.433Z,6.65
2022-12-29T07:11:21.038Z,6.59
2022-12-29T07:13:47.956Z,6.25
2022-12-29T07:16:14.599Z,6.38
2022-12-29T07:18:41.403Z,6.56
2022-12-29T07:21:08.009Z,6.79
2022-12-29T07:23:34.765Z,6.85
2022-12-29T07:26:02.147Z,6.88
2022-12-29T07:28:29.080Z,6.69
2022-12-29T07:30:55.798Z,6.64
2022-12-29T07:33:22.705Z,6.62
2022-12-29T07:35:49.382Z,6.77
2022-12-29T07:38:16.179Z,6.87
2022-12-29T07:40:43.935Z,6.91
2022-12-29T07:43:10.635Z,6.87
2022-12-29T07:45:43.543Z,6.77
2022-12-29T07:48:10.207Z,6.68
2022-12-29T07:50:37.316Z,6.68
2022-12-29T07:53:04.411Z,6.77
2022-12-29T07:55:31.138Z,6.78
2022-12-29T07:57:58.038Z,6.71
2022-12-29T08:00:24.663Z,6.70
2022-12-29T08:02:52.076Z,6.69
2022-12-29T08:05:19.239Z,6.67
2022-12-29T08:07:47.318Z,6.83
2022-12-29T08:10:15.850Z,6.89
2022-12-29T08:12:43.480Z,6.64
2022-12-29T08:15:11.833Z,7.02
2022-12-29T08:17:38.640Z,6.72
2022-12-29T08:20:05.705Z,7.08
2022-12-29T08:22:32.496Z,7.07
2022-12-29T08:24:59.122Z,6.97
2022-12-29T08:27:26.808Z,6.96
2022-12-29T08:29:53.788Z,6.87
2022-12-29T08:32:20.497Z,7.03
2022-12-29T08:34:47.159Z,7.01
2022-12-29T08:37:13.907Z,6.99
2022-12-29T08:39:40.519Z,7.12
2022-12-29T08:42:07.209Z,7.06
2022-12-29T08:44:33.927Z,7.01
2022-12-29T08:47:01.011Z,7.11
2022-12-29T08:49:27.662Z,6.94
2022-12-29T08:51:54.438Z,6.89
2022-12-29T08:54:21.032Z,6.96
2022-12-29T08:56:47.753Z,6.90
2022-12-29T08:59:16.111Z,6.99
2022-12-29T09:01:44.200Z,6.91
2022-12-29T09:04:16.425Z,6.98
2022-12-29T09:06:45.402Z,6.99
2022-12-29T09:09:12.920Z,6.89
2022-12-29T09:11:39.957Z,6.98
2022-12-29T09:14:06.629Z,6.65
2022-12-29T09:16:34.395Z,6.98
2022-12-29T09:19:01.492Z,7.07
2022-12-29T09:21:28.524Z,7.18
2022-12-29T09:23:55.248Z,7.27
2022-12-29T09:26:22.008Z,7.31
2022-12-29T09:28:48.708Z,7.08
2022-12-29T09:31:15.469Z,6.98
2022-12-29T09:33:42.185Z,7.21
2022-12-29T09:36:09.526Z,7.19
2022-12-29T09:38:36.137Z,7.19
2022-12-29T09:41:15.818Z,7.24
2022-12-29T09:44:04.499Z,7.20
2022-12-29T09:46:42.729Z,7.27
2022-12-29T09:49:29.755Z,7.42
2022-12-29T09:52:04.092Z,7.53
2022-12-29T09:54:54.997Z,7.36
2022-12-29T09:57:41.557Z,7.25
2022-12-29T10:00:15.321Z,7.29
2022-12-29T10:02:46.386Z,7.33
2022-12-29T10:06:07.729Z,7.34
2022-12-29T10:08:55.940Z,7.22
2022-12-29T10:11:31.553Z,7.29
2022-12-29T10:14:14.019Z,6.97
2022-12-29T10:17:16.521Z,7.08
2022-12-29T10:20:04.915Z,7.41
2022-12-29T10:23:08.894Z,7.62
2022-12-29T10:25:40.528Z,7.26
2022-12-29T10:28:19.560Z,7.13
2022-12-29T10:30:49.188Z,7.22
2022-12-29T10:33:23.354Z,7.39
2022-12-29T10:35:51.913Z,7.32
2022-12-29T10:38:44.666Z,7.49
2022-12-29T10:41:54.149Z,7.27
2022-12-29T10:44:22.505Z,7.28
2022-12-29T10:46:58.998Z,7.33
2022-12-29T10:49:29.305Z,7.46
2022-12-29T10:51:59.651Z,7.35
2022-12-29T10:54:41.482Z,7.36
2022-12-29T10:57:33.322Z,7.39
2022-12-29T10:59:59.969Z,7.13
2022-12-29T11:03:00.574Z,7.20
2022-12-29T11:05:47.986Z,7.01
2022-12-29T11:08:25.390Z,7.26
2022-12-29T11:11:03.982Z,7.29
2022-12-29T11:13:39.111Z,7.18
2022-12-29T11:16:06.485Z,7.09
2022-12-29T11:18:37.596Z,7.23
2022-12-29T11:21:07.660Z,7.27
2022-12-29T11:23:43.695Z,7.22
2022-12-29T11:26:25.414Z,7.15
2022-12-29T11:29:17.520Z,7.13
2022-12-29T11:31:49.734Z,7.14
2022-12-29T11:34:26.076Z,7.13
2022-12-29T11:37:03.228Z,7.22
2022-12-29T11:39:42.108Z,7.20
2022-12-29T11:42:17.217Z,7.08
2022-12-29T11:44:50.149Z,7.22
2022-12-29T11:47:22.951Z,7.40
2022-12-29T11:49:56.705Z,7.04
2022-12-29T11:52:29.976Z,7.09
2022-12-29T11:54:57.759Z,6.91
2022-12-29T11:57:25.765Z,6.80
2022-12-29T11:59:56.746Z,6.91
2022-12-29T12:02:29.686Z,7.02
2022-12-29T12:05:19.565Z,7.10
2022-12-29T12:08:12.283Z,7.12
2022-12-29T12:10:59.796Z,7.03
2022-12-29T12:13:39.511Z,7.22
2022-12-29T12:16:16.297Z,7.41
2022-12-29T12:19:14.976Z,7.42
2022-12-29T12:21:46.621Z,7.44
2022-12-29T12:24:19.367Z,7.43
2022-12-29T12:27:25.519Z,7.34
2022-12-29T12:30:04.981Z,7.33
2022-12-29T12:32:55.710Z,7.47
2022-12-29T12:35:31.129Z,7.40
2022-12-29T12:38:09.701Z,7.32
2022-12-29T12:41:02.342Z,7.12
2022-12-29T12:43:47.769Z,7.26
2022-12-29T12:46:29.477Z,7.44
2022-12-29T12:48:58.908Z,7.43
2022-12-29T12:51:38.865Z,7.44
2022-12-29T12:54:49.190Z,7.39
2022-12-29T12:57:37.799Z,7.46
2022-12-29T13:00:13.723Z,7.55
2022-12-29T13:03:05.176Z,7.30
2022-12-29T13:05:34.655Z,7.46
2022-12-29T13:08:25.831Z,7.42
2022-12-29T13:11:21.610Z,7.36
2022-12-29T13:14:03.711Z,7.12
2022-12-29T13:16:38.163Z,7.14
2022-12-29T13:19:24.430Z,7.21
2022-12-29T13:22:21.097Z,7.32
2022-12-29T13:25:21.729Z,7.52
2022-12-29T13:28:03.812Z,7.47
2022-12-29T13:30:51.945Z,7.30
2022-12-29T13:33:28.159Z,7.26
2022-12-29T13:36:06.118Z,7.30
2022-12-29T13:38:38.927Z,7.09
2022-12-29T13:41:14.616Z,7.18
2022-12-29T13:43:44.373Z,7.26
2022-12-29T13:46:28.189Z,7.17
2022-12-29T13:49:05.167Z,7.15
2022-12-29T13:51:33.257Z,7.21
2022-12-29T13:54:41.362Z,7.34
2022-12-29T13:57:27.965Z,7.24
2022-12-29T14:00:14.396Z,7.11
2022-12-29T14:02:48.579Z,6.98
2022-12-29T14:05:18.643Z,6.92
2022-12-29T14:07:45.813Z,6.95
2022-12-29T14:10:34.007Z,6.99
2022-12-29T14:13:07.652Z,6.89
2022-12-29T14:15:39.311Z,7.02
2022-12-29T14:18:17.712Z,6.86
2022-12-29T14:21:10.689Z,6.95
2022-12-29T14:23:42.971Z,6.96
2022-12-29T14:26:18.951Z,7.16
2022-12-29T14:28:48.108Z,7.05
2022-12-29T14:31:20.757Z,6.88
2022-12-29T14:34:12.155Z,6.97
2022-12-29T14:36:38.973Z,6.89
2022-12-29T14:39:29.858Z,6.90
2022-12-29T14:42:25.882Z,6.73
2022-12-29T14:45:08.843Z,6.88
2022-12-29T14:47:39.236Z,6.85
2022-12-29T14:50:12.006Z,6.99
2022-12-29T14:53:00.095Z,6.87
2022-12-29T14:55:40.446Z,6.77
2022-12-29T14:58:17.255Z,6.75
2022-12-29T15:00:45.310Z,6.81
2022-12-29T15:03:22.930Z,7.01
2022-12-29T15:05:58.941Z,6.94
2022-12-29T15:08:29.300Z,6.98
2022-12-29T15:11:21.960Z,6.80
2022-12-29T15:13:49.079Z,6.81
2022-12-29T15:16:29.898Z,6.78
2022-12-29T15:18:57.249Z,6.81
2022-12-29T15:21:30.083Z,6.69
2022-12-29T15:23:57.256Z,6.62
2022-12-29T15:26:24.274Z,6.78
2022-12-29T15:28:53.311Z,6.80
2022-12-29T15:31:30.216Z,7.04
2022-12-29T15:34:12.394Z,6.81
2022-12-29T15:36:41.114Z,6.56
2022-12-29T15:39:39.907Z,7.01
2022-12-29T15:42:25.108Z,7.08
2022-12-29T15:45:09.519Z,6.97
2022-12-29T15:47:37.549Z,6.98
2022-12-29T15:50:15.507Z,6.81
2022-12-29T15:52:42.509Z,6.59
2022-12-29T15:55:30.020Z,6.61
2022-12-29T15:58:00.795Z,6.88
2022-12-29T16:00:28.878Z,6.79
2022-12-29T16:02:59.128Z,6.87
2022-12-29T16:05:32.970Z,6.74
2022-12-29T16:08:00.866Z,7.10
2022-12-29T16:10:47.995Z,7.02
2022-12-29T16:13:36.814Z,7.10
2022-12-29T16:16:21.239Z,7.10
2022-12-29T16:18:58.011Z,6.72
2022-12-29T16:21:38.355Z,6.67
2022-12-29T16:24:28.235Z,6.82
2022-12-29T16:27:09.190Z,6.68
2022-12-29T16:29:43.857Z,6.60
2022-12-29T16:32:50.852Z,6.54
2022-12-29T16:35:22.687Z,6.65
2022-12-29T16:38:09.078Z,6.54
2022-12-29T16:40:50.179Z,6.54
2022-12-29T16:43:36.884Z,6.72
2022-12-29T16:46:19.114Z,6.41
2022-12-29T16:48:59.449Z,6.28
2022-12-29T16:51:39.724Z,6.17
2022-12-29T16:54:09.363Z,6.27
2022-12-29T16:56:37.624Z,6.16
2022-12-29T16:59:10.170Z,5.81
2022-12-29T17:01:40.800Z,6.26
2022-12-29T17:04:12.497Z,6.06
2022-12-29T17:06:44.379Z,5.91
2022-12-29T17:09:29.226Z,5.87
2022-12-29T17:14:51.091Z,5.99
2022-12-29T17:17:52.135Z,5.90
2022-12-29T17:20:29.774Z,5.88
2022-12-29T17:23:03.561Z,5.69
2022-12-29T17:25:38.320Z,5.53
2022-12-29T17:28:31.627Z,5.55
2022-12-29T17:31:03.328Z,5.50
2022-12-29T17:33:38.917Z,5.51
2022-12-29T17:36:09.529Z,5.59
2022-12-29T17:38:39.657Z,5.72
2022-12-29T17:41:16.873Z,5.74
2022-12-29T17:43:48.900Z,5.60
2022-12-29T17:46:19.531Z,5.29
2022-12-29T17:48:53.352Z,5.41
2022-12-29T17:51:23.010Z,5.46
2022-12-29T17:53:52.307Z,5.33
2022-12-29T17:56:19.597Z,5.66
2022-12-29T17:58:53.309Z,5.61
2022-12-29T18:01:22.307Z,5.26
2022-12-29T18:07:42.475Z,5.72
2022-12-29T18:10:09.143Z,5.57
2022-12-29T18:12:39.847Z,5.77
2022-12-29T18:15:16.509Z,5.87
2022-12-29T18:17:43.235Z,5.85
2022-12-29T18:20:10.015Z,5.64
2022-12-29T18:22:36.959Z,5.69
2022-12-29T18:25:15.948Z,5.88
2022-12-29T18:27:42.659Z,5.81
2022-12-29T18:30:09.654Z,5.59
2022-12-29T18:32:36.308Z,5.59
2022-12-29T18:35:03.039Z,5.62
2022-12-29T18:37:29.772Z,5.28
2022-12-29T18:39:56.333Z,5.38
2022-12-29T18:42:23.186Z,5.37
2022-12-29T18:44:49.747Z,5.53
2022-12-29T18:47:16.624Z,5.48
2022-12-29T18:49:43.418Z,5.26
2022-12-29T18:52:12.906Z,5.56
2022-12-29T18:54:39.493Z,5.50
2022-12-29T18:57:06.225Z,5.72
2022-12-29T18:59:32.817Z,5.61
2022-12-29T19:01:59.487Z,5.60
2022-12-29T19:04:26.811Z,5.58
2022-12-29T19:06:53.568Z,5.64
2022-12-29T19:09:20.174Z,5.57
2022-12-29T19:11:47.015Z,5.49
2022-12-29T19:14:15.621Z,5.56
2022-12-29T19:16:42.508Z,5.42
2022-12-29T19:19:15.040Z,5.33
2022-12-29T19:21:41.824Z,5.18
2022-12-29T19:24:08.590Z,5.13
2022-12-29T19:26:37.977Z,5.37
2022-12-29T19:29:08.055Z,5.06
2022-12-29T19:31:36.776Z,4.99
2022-12-29T19:34:03.565Z,5.00
2022-12-29T19:36:30.322Z,4.71
2022-12-29T19:38:56.932Z,4.87
2022-12-29T19:41:23.916Z,4.90
2022-12-29T19:43:50.534Z,4.86
2022-12-29T19:46:19.600Z,4.56
2022-12-29T19:48:46.364Z,4.92
2022-12-29T19:51:15.922Z,4.87
2022-12-29T19:53:48.761Z,4.79
2022-12-29T19:56:15.435Z,4.79
2022-12-29T19:58:47.166Z,4.74
2022-12-29T20:01:20.907Z,4.18
2022-12-29T20:03:48.897Z,4.56
2022-12-29T20:06:15.879Z,4.55
2022-12-29T20:08:43.864Z,4.47
2022-12-29T20:11:14.508Z,4.58
2022-12-29T20:13:41.317Z,4.46
2022-12-29T20:16:14.792Z,4.53
2022-12-29T20:18:41.915Z,4.68
2022-12-29T20:21:12.887Z,4.57
2022-12-29T20:23:40.699Z,4.60
2022-12-29T20:26:08.759Z,4.50
2022-12-29T20:28:37.008Z,4.48
2022-12-29T20:31:07.936Z,4.59
2022-12-29T20:33:36.037Z,4.52
2022-12-29T20:36:12.880Z,4.39
2022-12-29T20:38:39.805Z,4.30
2022-12-29T20:41:06.471Z,4.21
2022-12-29T20:43:34.362Z,4.17
2022-12-29T20:46:01.185Z,3.93
2022-12-29T20:48:27.951Z,4.12
2022-12-29T20:50:54.655Z,4.10
2022-12-29T20:53:21.371Z,4.23
2022-12-29T20:55:50.827Z,4.51
2022-12-29T20:58:25.274Z,4.72
2022-12-29T21:00:53.445Z,4.63
2022-12-29T21:03:20.247Z,4.63
2022-12-29T21:05:47.181Z,4.42
2022-12-29T21:08:13.891Z,4.35
2022-12-29T21:10:40.935Z,4.36
2022-12-29T21:13:07.529Z,4.18
2022-12-29T21:15:34.166Z,4.31
2022-12-29T21:18:00.883Z,4.34
2022-12-29T21:20:27.593Z,4.26
2022-12-29T21:22:54.173Z,4.26
2022-12-29T21:25:20.940Z,4.21
2022-12-29T21:27:47.821Z,3.86
2022-12-29T21:30:14.728Z,4.13
2022-12-29T21:32:41.553Z,4.06
2022-12-29T21:35:09.606Z,3.94
2022-12-29T21:37:36.777Z,3.95
2022-12-29T21:40:04.924Z,3.92
2022-12-29T21:42:31.945Z,4.05
2022-12-29T21:44:58.595Z,4.10
2022-12-29T21:47:26.133Z,4.20
2022-12-29T21:49:52.808Z,4.31
2022-12-29T21:52:19.461Z,4.23
2022-12-29T21:54:46.295Z,4.15
2022-12-29T21:57:20.987Z,4.29
2022-12-29T21:59:48.153Z,4.31
2022-12-29T22:02:23.868Z,4.28
2022-12-29T22:04:50.733Z,4.23
2022-12-29T22:07:17.322Z,4.23
2022-12-29T22:09:44.214Z,4.16
2022-12-29T22:12:10.937Z,4.42
2022-12-29T22:14:38.585Z,4.32
2022-12-29T22:17:08.193Z,4.25
2022-12-29T22:19:37.323Z,4.19
2022-12-29T22:22:03.892Z,4.19
2022-12-29T22:24:31.609Z,4.29
2022-12-29T22:26:58.452Z,4.25
2022-12-29T22:29:25.151Z,4.21
2022-12-29T22:31:51.795Z,4.15
2022-12-29T22:34:18.716Z,4.40
2022-12-29T22:36:45.399Z,4.22
2022-12-29T22:39:12.522Z,4.09
2022-12-29T22:41:39.195Z,4.07
2022-12-29T22:44:05.896Z,3.79
2022-12-29T22:46:32.866Z,3.76
2022-12-29T22:49:00.268Z,3.82
2022-12-29T22:51:27.040Z,3.68
2022-12-29T22:53:53.822Z,3.80
2022-12-29T22:56:20.783Z,4.04
2022-12-29T22:58:48.425Z,4.16
2022-12-29T23:01:17.577Z,4.04
2022-12-29T23:03:44.789Z,4.25
2022-12-29T23:06:13.667Z,4.23
2022-12-29T23:08:40.340Z,4.24
2022-12-29T23:11:09.826Z,4.31
2022-12-29T23:13:37.164Z,4.10
2022-12-29T23:16:04.021Z,3.93
2022-12-29T23:18:30.799Z,3.98
2022-12-29T23:20:57.428Z,3.98
2022-12-29T23:23:24.139Z,3.84
2022-12-29T23:25:50.765Z,3.70
2022-12-29T23:28:17.479Z,3.67
2022-12-29T23:30:44.163Z,4.18
2022-12-29T23:33:10.920Z,4.08
2022-12-29T23:35:37.509Z,3.97
2022-12-29T23:38:04.209Z,4.03
2022-12-29T23:40:31.198Z,3.93
2022-12-29T23:42:57.869Z,4.16
2022-12-29T23:45:24.464Z,4.29
2022-12-29T23:47:51.260Z,4.38
2022-12-29T23:50:17.837Z,4.26
2022-12-29T23:52:44.835Z,4.31
2022-12-29T23:55:11.601Z,4.18
2022-12-29T23:57:38.539Z,3.98
